Time;durP1;ratioP1;P1;durP2;ratioP2;P2;SDS_P1;SDS_P2;PMS_P1;PMS_P2;Temp;Humidity;BMP_temperature;BMP_pressure;BME280_temperature;BME280_humidity;BME280_pressure;Samples;Min_cycle;Max_cycle;Signal;HPM_P1;HPM_P2
2023/01/17 00:01:02;;;;;;;8.35;3.45;;;2.10;99.90;;;;;;490082;242;27512;-73
2023/01/17 00:03:03;;;;;;;4.68;3.25;;;2.10;99.90;;;;;;490059;242;27630;-73
2023/01/17 00:09:52;;;;;;;7.93;3.65;;;2.10;99.90;;;;;;490020;242;27606;-73
2023/01/17 00:11:54;;;;;;;7.43;3.55;;;2.10;99.90;;;;;;490037;242;27607;-73
2023/01/17 00:13:55;;;;;;;5.18;3.30;;;2.10;99.90;;;;;;489978;242;27567;-73
2023/01/17 00:15:56;;;;;;;5.07;3.60;;;2.10;99.90;;;;;;490073;242;27504;-73
2023/01/17 00:17:57;;;;;;;4.28;3.67;;;2.10;99.90;;;;;;490069;242;27467;-73
2023/01/17 01:34:28;;;;;;;8.80;4.37;;;2.20;99.90;;;;;;490076;242;27383;-73
2023/01/17 01:36:29;;;;;;;8.90;4.37;;;2.20;99.90;;;;;;490090;242;27967;-73
2023/01/17 01:38:30;;;;;;;13.07;4.37;;;2.20;99.90;;;;;;490147;242;27903;-73
2023/01/17 01:40:32;;;;;;;5.95;4.45;;;2.20;99.90;;;;;;490103;242;28041;-73
2023/01/17 01:42:33;;;;;;;7.40;4.90;;;2.20;99.90;;;;;;490120;242;27503;-73
2023/01/17 01:44:34;;;;;;;9.98;4.82;;;2.20;99.90;;;;;;490112;242;27461;-73
2023/01/17 01:46:35;;;;;;;4.30;3.90;;;2.10;99.90;;;;;;490078;242;27512;-73
2023/01/17 01:48:37;;;;;;;6.30;3.85;;;2.10;99.90;;;;;;490098;242;27552;-73
2023/01/17 01:50:38;;;;;;;7.95;4.18;;;2.10;99.90;;;;;;490074;242;27448;-73
2023/01/17 01:52:39;;;;;;;4.97;4.30;;;1.90;99.90;;;;;;490082;242;27507;-73
2023/01/17 01:54:40;;;;;;;3.92;3.40;;;1.90;99.90;;;;;;490077;242;27566;-73
2023/01/17 01:56:42;;;;;;;8.50;4.75;;;2.00;99.90;;;;;;490059;240;27420;-73
2023/01/17 01:58:43;;;;;;;6.03;3.92;;;2.00;99.90;;;;;;490008;242;27519;-73
2023/01/17 02:00:44;;;;;;;3.65;3.30;;;2.00;99.90;;;;;;490088;242;27548;-73
2023/01/17 02:02:45;;;;;;;5.90;5.00;;;2.00;99.90;;;;;;490060;242;27496;-73
2023/01/17 02:04:47;;;;;;;8.32;4.28;;;2.00;99.90;;;;;;490086;242;27936;-73
2023/01/17 02:06:49;;;;;;;5.53;4.10;;;1.90;99.90;;;;;;489999;242;28051;-73
2023/01/17 02:08:49;;;;;;;5.62;4.22;;;1.90;99.90;;;;;;490066;242;29076;-73
2023/01/17 02:10:50;;;;;;;7.05;4.50;;;2.00;99.90;;;;;;490086;242;27935;-73
2023/01/17 02:12:52;;;;;;;5.37;4.53;;;2.00;99.90;;;;;;490077;242;27607;-74
2023/01/17 02:14:53;;;;;;;5.35;4.35;;;1.90;99.90;;;;;;490074;242;27423;-73
2023/01/17 02:16:54;;;;;;;5.60;4.87;;;2.00;99.90;;;;;;490038;242;27590;-73
2023/01/17 02:18:55;;;;;;;6.55;4.45;;;1.90;99.90;;;;;;490069;242;27420;-73
2023/01/17 02:20:57;;;;;;;5.55;4.60;;;1.90;99.90;;;;;;490071;242;27551;-73
2023/01/17 02:22:58;;;;;;;4.35;3.95;;;1.90;99.90;;;;;;490071;242;27619;-73
2023/01/17 02:24:59;;;;;;;5.72;4.25;;;2.00;99.90;;;;;;490076;242;27568;-73
2023/01/17 02:27:00;;;;;;;6.75;4.43;;;2.00;99.90;;;;;;490079;242;27536;-73
2023/01/17 02:29:04;;;;;;;7.03;4.75;;;2.00;99.90;;;;;;490068;242;27404;-73
2023/01/17 02:31:03;;;;;;;5.97;4.25;;;2.00;99.90;;;;;;489908;242;27506;-73
2023/01/17 02:33:04;;;;;;;5.55;4.32;;;2.00;99.90;;;;;;490026;242;27982;-73
2023/01/17 02:35:05;;;;;;;5.32;4.28;;;2.00;99.90;;;;;;490078;242;27841;-73
2023/01/17 02:37:07;;;;;;;5.87;4.65;;;2.00;99.90;;;;;;490086;242;27975;-73
2023/01/17 02:39:08;;;;;;;5.82;4.70;;;2.00;99.90;;;;;;490081;242;28082;-73
2023/01/17 02:41:09;;;;;;;6.12;4.57;;;2.00;99.90;;;;;;490091;242;27476;-73
2023/01/17 02:43:10;;;;;;;9.50;4.43;;;2.00;99.90;;;;;;490081;242;27538;-73
2023/01/17 02:45:12;;;;;;;6.30;4.32;;;2.10;99.90;;;;;;490087;242;27564;-73
2023/01/17 02:47:13;;;;;;;9.13;4.95;;;2.10;99.90;;;;;;490060;242;27512;-73
2023/01/17 02:49:14;;;;;;;6.47;4.80;;;2.10;99.90;;;;;;490095;242;27522;-73
2023/01/17 02:51:15;;;;;;;7.40;5.15;;;2.10;99.90;;;;;;490117;242;27424;-76
2023/01/17 02:53:17;;;;;;;10.35;5.28;;;2.10;99.90;;;;;;490110;242;27499;-73
2023/01/17 02:55:18;;;;;;;8.05;5.78;;;2.00;99.90;;;;;;490116;242;27488;-73
2023/01/17 02:57:19;;;;;;;6.40;4.95;;;2.10;99.90;;;;;;490089;242;27508;-73
2023/01/17 02:59:20;;;;;;;7.40;5.10;;;2.10;99.90;;;;;;490091;242;27480;-73
2023/01/17 03:01:22;;;;;;;7.20;4.87;;;2.10;99.90;;;;;;490094;242;27944;-73
2023/01/17 03:03:23;;;;;;;9.73;4.95;;;2.10;99.90;;;;;;490080;242;27900;-73
2023/01/17 03:05:24;;;;;;;7.65;5.00;;;2.10;99.90;;;;;;490076;242;27935;-73
2023/01/17 03:07:25;;;;;;;7.95;4.75;;;2.10;99.90;;;;;;490069;242;28106;-72
2023/01/17 03:09:27;;;;;;;12.23;5.78;;;2.10;99.90;;;;;;490088;242;27508;-72
2023/01/17 03:11:28;;;;;;;6.43;4.37;;;2.10;99.90;;;;;;490032;242;27564;-73
2023/01/17 03:13:29;;;;;;;7.05;5.20;;;2.00;99.90;;;;;;490085;242;27599;-73
2023/01/17 03:15:30;;;;;;;15.00;5.72;;;2.10;99.90;;;;;;490064;242;27451;-73
2023/01/17 03:17:32;;;;;;;7.37;4.93;;;2.00;99.90;;;;;;490068;242;27522;-73
2023/01/17 03:19:33;;;;;;;7.55;5.03;;;2.00;99.90;;;;;;490065;242;27515;-73
2023/01/17 03:21:34;;;;;;;8.20;5.10;;;2.00;99.90;;;;;;490083;242;27543;-73
2023/01/17 03:23:35;;;;;;;8.35;4.50;;;1.90;99.90;;;;;;490062;242;27594;-73
2023/01/17 03:25:37;;;;;;;7.35;4.65;;;1.90;99.90;;;;;;490081;242;27469;-73
2023/01/17 03:27:38;;;;;;;8.23;4.50;;;1.90;99.90;;;;;;490033;242;28074;-73
2023/01/17 03:29:39;;;;;;;7.40;4.55;;;2.00;99.90;;;;;;490102;242;28825;-73
2023/01/17 03:31:40;;;;;;;7.10;5.28;;;1.90;99.90;;;;;;490079;242;27844;-73
2023/01/17 03:33:42;;;;;;;8.32;5.10;;;1.90;99.90;;;;;;490084;242;28076;-73
2023/01/17 03:35:43;;;;;;;7.20;4.55;;;1.90;99.90;;;;;;490047;242;27479;-72
2023/01/17 03:37:44;;;;;;;7.10;4.85;;;1.90;99.90;;;;;;490051;242;27610;-73
2023/01/17 03:39:45;;;;;;;5.60;4.55;;;1.90;99.90;;;;;;490078;242;27472;-73
2023/01/17 03:41:47;;;;;;;7.30;4.15;;;1.90;99.90;;;;;;490076;242;27396;-73
2023/01/17 03:43:48;;;;;;;6.47;4.55;;;2.00;99.90;;;;;;490078;242;27511;-73
2023/01/17 03:45:50;;;;;;;14.35;6.10;;;2.00;99.90;;;;;;490008;242;27469;-73
2023/01/17 03:47:50;;;;;;;7.30;4.87;;;2.00;99.90;;;;;;489998;242;27634;-73
2023/01/17 03:49:52;;;;;;;9.10;5.53;;;1.90;99.90;;;;;;490037;242;27462;-73
2023/01/17 03:51:53;;;;;;;7.32;4.75;;;1.80;99.90;;;;;;490066;242;27435;-73
2023/01/17 03:53:54;;;;;;;6.87;4.45;;;1.70;99.90;;;;;;490067;242;27629;-73
2023/01/17 03:55:55;;;;;;;5.47;4.40;;;1.60;99.90;;;;;;490073;242;29047;-73
2023/01/17 03:57:57;;;;;;;6.53;5.05;;;1.60;99.90;;;;;;490075;242;27990;-73
2023/01/17 03:59:58;;;;;;;5.20;4.70;;;1.50;99.90;;;;;;490064;242;27947;-73
2023/01/17 04:01:59;;;;;;;6.47;4.78;;;1.50;99.90;;;;;;490071;242;27928;-73
2023/01/17 04:04:00;;;;;;;7.55;4.80;;;1.60;99.90;;;;;;490075;242;27520;-73
2023/01/17 04:06:02;;;;;;;6.70;4.82;;;1.60;99.90;;;;;;490102;242;27544;-73
2023/01/17 04:08:05;;;;;;;7.60;4.20;;;1.60;99.90;;;;;;490086;242;27510;-73
2023/01/17 04:10:04;;;;;;;5.50;4.20;;;1.60;99.90;;;;;;489969;242;27550;-73
2023/01/17 04:12:05;;;;;;;6.55;4.30;;;1.50;99.90;;;;;;490079;242;27500;-73
2023/01/17 04:14:07;;;;;;;8.18;4.75;;;1.40;99.90;;;;;;490090;242;27532;-73
2023/01/17 04:16:08;;;;;;;6.72;4.37;;;1.30;99.90;;;;;;490093;242;27492;-73
2023/01/17 04:18:09;;;;;;;8.48;5.10;;;1.30;99.90;;;;;;490075;242;27499;-73
2023/01/17 04:20:10;;;;;;;9.63;5.70;;;1.40;99.90;;;;;;490047;242;27592;-73
2023/01/17 04:22:12;;;;;;;10.10;5.87;;;1.30;99.90;;;;;;490097;242;27509;-73
2023/01/17 04:24:13;;;;;;;9.75;5.20;;;1.30;99.90;;;;;;490078;242;27978;-73
2023/01/17 04:26:14;;;;;;;7.22;4.62;;;1.30;99.90;;;;;;490098;242;27821;-73
2023/01/17 04:28:15;;;;;;;5.85;4.10;;;1.20;99.90;;;;;;490084;242;27974;-73
2023/01/17 04:30:17;;;;;;;6.25;4.35;;;1.20;99.90;;;;;;490090;242;27866;-73
2023/01/17 04:32:18;;;;;;;10.65;5.18;;;1.20;99.90;;;;;;490083;242;27580;-73
2023/01/17 04:34:19;;;;;;;6.43;4.45;;;1.10;99.90;;;;;;490099;242;27514;-73
2023/01/17 04:36:20;;;;;;;10.88;5.70;;;1.20;99.90;;;;;;490105;242;27381;-73
2023/01/17 04:38:22;;;;;;;11.73;5.30;;;1.20;99.90;;;;;;490094;242;27416;-73
2023/01/17 04:40:23;;;;;;;9.20;4.75;;;1.30;99.90;;;;;;490088;242;27599;-72
2023/01/17 04:42:24;;;;;;;9.25;5.43;;;1.30;99.90;;;;;;490086;242;27523;-73
2023/01/17 04:44:25;;;;;;;7.47;4.90;;;1.30;99.90;;;;;;490069;242;27975;-73
2023/01/17 04:46:27;;;;;;;6.65;4.87;;;1.30;99.90;;;;;;490106;242;27478;-72
2023/01/17 04:48:30;;;;;;;7.97;5.15;;;1.30;99.90;;;;;;490068;242;27423;-73
2023/01/17 04:50:29;;;;;;;8.57;5.35;;;1.30;99.90;;;;;;489979;242;27832;-73
2023/01/17 04:52:30;;;;;;;11.15;5.15;;;1.30;99.90;;;;;;490067;242;28061;-73
2023/01/17 04:54:32;;;;;;;6.82;4.80;;;1.20;99.90;;;;;;490049;242;27935;-73
2023/01/17 04:56:33;;;;;;;7.62;5.05;;;1.20;99.90;;;;;;490069;242;27983;-73
2023/01/17 04:58:34;;;;;;;10.48;5.35;;;1.30;99.90;;;;;;490054;242;27511;-73
2023/01/17 05:00:35;;;;;;;7.20;5.25;;;1.30;99.90;;;;;;490056;242;27472;-73
2023/01/17 05:02:37;;;;;;;8.73;5.57;;;1.40;99.90;;;;;;490058;242;27496;-73
2023/01/17 05:04:38;;;;;;;5.47;4.60;;;1.40;99.90;;;;;;490096;242;27611;-73
2023/01/17 05:06:39;;;;;;;7.82;4.82;;;1.40;99.90;;;;;;490112;242;27373;-73
2023/01/17 05:08:40;;;;;;;9.63;5.30;;;1.40;99.90;;;;;;490114;242;27662;-73
2023/01/17 05:10:42;;;;;;;5.22;4.43;;;1.40;99.90;;;;;;490101;242;27535;-72
2023/01/17 05:12:43;;;;;;;9.38;5.35;;;1.50;99.90;;;;;;490085;242;27500;-73
2023/01/17 05:14:44;;;;;;;8.15;5.05;;;1.50;99.90;;;;;;490082;242;27630;-73
2023/01/17 05:16:45;;;;;;;6.50;4.75;;;1.50;99.90;;;;;;490089;242;27372;-73
2023/01/17 05:18:47;;;;;;;9.70;6.18;;;1.60;99.90;;;;;;490082;242;27985;-72
2023/01/17 05:20:48;;;;;;;5.90;4.70;;;1.60;99.90;;;;;;490095;242;27925;-73
2023/01/17 05:22:49;;;;;;;8.85;5.15;;;1.60;99.90;;;;;;490095;242;27935;-72
2023/01/17 05:24:50;;;;;;;5.60;4.50;;;1.50;99.90;;;;;;490086;242;27990;-72
2023/01/17 05:26:53;;;;;;;5.85;4.30;;;1.50;99.90;;;;;;490113;242;27468;-73
2023/01/17 05:28:53;;;;;;;6.20;4.60;;;1.50;99.90;;;;;;489999;242;27500;-73
2023/01/17 05:30:54;;;;;;;7.12;4.25;;;1.60;99.90;;;;;;490136;242;27385;-73
2023/01/17 05:32:55;;;;;;;10.35;5.40;;;1.60;99.90;;;;;;490105;242;27556;-72
2023/01/17 05:34:57;;;;;;;6.05;4.70;;;1.60;99.90;;;;;;490002;242;27575;-73
2023/01/17 05:36:58;;;;;;;8.00;4.97;;;1.60;99.90;;;;;;490117;242;27552;-73
2023/01/17 05:38:59;;;;;;;5.87;4.95;;;1.60;99.90;;;;;;490106;242;27504;-73
2023/01/17 05:41:00;;;;;;;5.80;4.75;;;1.60;99.90;;;;;;490119;242;27584;-73
2023/01/17 05:43:04;;;;;;;5.35;4.53;;;1.50;99.90;;;;;;490103;242;27464;-73
2023/01/17 05:45:06;;;;;;;5.40;4.43;;;1.60;99.90;;;;;;490033;242;27606;-73
2023/01/17 05:47:07;;;;;;;8.52;5.47;;;1.60;99.90;;;;;;490101;242;27510;-73
2023/01/17 05:49:08;;;;;;;4.75;4.05;;;1.60;99.90;;;;;;490098;242;27948;-73
2023/01/17 05:51:09;;;;;;;5.40;4.87;;;1.60;99.90;;;;;;490105;242;27931;-74
2023/01/17 05:53:11;;;;;;;6.55;4.60;;;1.60;99.90;;;;;;490067;242;27947;-73
2023/01/17 05:55:12;;;;;;;7.30;5.03;;;1.60;99.90;;;;;;490063;242;28018;-73
2023/01/17 05:57:13;;;;;;;6.37;5.55;;;1.50;99.90;;;;;;490078;242;27654;-73
2023/01/17 05:59:14;;;;;;;8.40;5.10;;;1.60;99.90;;;;;;490119;242;27476;-73
2023/01/17 06:01:16;;;;;;;9.23;6.35;;;1.60;99.90;;;;;;490077;242;27526;-72
2023/01/17 06:03:17;;;;;;;7.07;4.97;;;1.60;99.90;;;;;;490080;242;27630;-73
2023/01/17 06:05:18;;;;;;;6.95;4.95;;;1.60;99.90;;;;;;490063;242;27503;-73
2023/01/17 06:07:19;;;;;;;6.35;5.00;;;1.60;99.90;;;;;;490119;242;27619;-73
2023/01/17 06:09:21;;;;;;;13.18;5.62;;;1.60;99.90;;;;;;490107;242;27568;-73
2023/01/17 06:11:22;;;;;;;12.82;5.30;;;1.60;99.90;;;;;;490088;242;27524;-73
2023/01/17 06:13:23;;;;;;;6.68;4.82;;;1.60;99.90;;;;;;490057;240;27420;-73
2023/01/17 06:15:24;;;;;;;9.52;4.35;;;1.50;99.90;;;;;;490064;242;27508;-73
2023/01/17 06:17:26;;;;;;;8.00;5.00;;;1.50;99.90;;;;;;490057;242;28019;-76
2023/01/17 06:19:27;;;;;;;7.07;4.32;;;1.50;99.90;;;;;;490084;242;27992;-73
2023/01/17 06:21:28;;;;;;;5.85;4.70;;;1.50;99.90;;;;;;490073;242;27977;-73
2023/01/17 06:23:29;;;;;;;10.68;4.85;;;1.50;99.90;;;;;;490034;242;27928;-73
2023/01/17 06:25:31;;;;;;;6.95;4.30;;;1.50;99.90;;;;;;489995;242;27516;-72
2023/01/17 06:27:32;;;;;;;6.87;4.75;;;1.50;99.90;;;;;;490022;242;27616;-73
2023/01/17 06:29:33;;;;;;;7.78;5.15;;;1.50;99.90;;;;;;490029;242;27511;-72
2023/01/17 06:31:34;;;;;;;9.93;5.57;;;1.40;99.90;;;;;;490022;242;27419;-73
2023/01/17 06:33:36;;;;;;;8.52;5.07;;;1.50;99.90;;;;;;490041;242;27580;-73
2023/01/17 06:35:39;;;;;;;6.47;4.50;;;1.40;99.90;;;;;;490038;242;27603;-73
2023/01/17 06:37:38;;;;;;;7.35;4.57;;;1.50;99.90;;;;;;489956;242;27999;-73
2023/01/17 06:39:39;;;;;;;4.95;4.40;;;1.50;99.90;;;;;;490059;242;27468;-72
2023/01/17 06:41:41;;;;;;;11.32;5.62;;;1.50;99.90;;;;;;490056;242;27512;-73
2023/01/17 06:43:42;;;;;;;5.75;4.20;;;1.60;99.90;;;;;;490075;242;27857;-73
2023/01/17 06:45:43;;;;;;;6.25;4.87;;;1.60;99.90;;;;;;490073;242;28093;-73
2023/01/17 06:47:44;;;;;;;8.27;5.47;;;1.60;99.90;;;;;;490118;242;28093;-73
2023/01/17 06:49:46;;;;;;;6.00;4.70;;;1.60;99.90;;;;;;490123;242;28022;-73
2023/01/17 06:51:47;;;;;;;8.85;4.65;;;1.60;99.90;;;;;;490112;242;27520;-73
2023/01/17 06:53:48;;;;;;;5.93;4.55;;;1.60;99.90;;;;;;490089;242;27477;-73
2023/01/17 06:55:49;;;;;;;8.23;4.55;;;1.60;99.90;;;;;;490068;242;27520;-73
2023/01/17 06:57:51;;;;;;;5.78;4.43;;;1.60;99.90;;;;;;490094;242;27517;-73
2023/01/17 06:59:52;;;;;;;7.05;3.95;;;1.50;99.90;;;;;;490091;242;27377;-72
2023/01/17 07:01:53;;;;;;;5.85;4.00;;;1.40;99.90;;;;;;490045;242;27522;-73
2023/01/17 07:03:54;;;;;;;7.55;5.07;;;1.40;99.90;;;;;;490055;242;27488;-73
2023/01/17 07:05:56;;;;;;;9.07;4.50;;;1.40;99.90;;;;;;490015;242;27518;-73
2023/01/17 07:07:57;;;;;;;6.53;4.95;;;1.30;99.90;;;;;;490074;242;27527;-73
2023/01/17 07:09:59;;;;;;;7.28;4.68;;;1.30;99.90;;;;;;490086;242;27512;-73
2023/01/17 07:12:00;;;;;;;8.63;4.82;;;1.30;99.90;;;;;;490066;242;27892;-72
2023/01/17 07:14:01;;;;;;;5.55;3.80;;;1.40;99.90;;;;;;490028;242;27927;-73
2023/01/17 07:16:02;;;;;;;7.03;4.50;;;1.40;99.90;;;;;;490074;242;27974;-73
2023/01/17 07:18:03;;;;;;;7.05;4.62;;;1.40;99.90;;;;;;490106;242;28021;-73
2023/01/17 07:20:04;;;;;;;7.37;4.10;;;1.40;99.90;;;;;;490061;242;27465;-73
2023/01/17 07:22:06;;;;;;;6.05;4.10;;;1.50;99.90;;;;;;490119;242;27400;-73
2023/01/17 07:24:07;;;;;;;6.80;4.32;;;1.50;99.90;;;;;;490076;242;27483;-73
2023/01/17 07:26:08;;;;;;;5.95;3.90;;;1.60;99.90;;;;;;490029;242;27615;-73
2023/01/17 07:28:09;;;;;;;10.52;4.93;;;1.40;99.90;;;;;;490091;242;27512;-72
2023/01/17 07:30:11;;;;;;;10.48;4.62;;;1.30;99.90;;;;;;490094;242;27564;-73
2023/01/17 07:32:12;;;;;;;6.72;5.03;;;1.30;99.90;;;;;;490079;242;27605;-73
2023/01/17 07:34:13;;;;;;;8.38;4.15;;;1.30;99.90;;;;;;489934;242;27512;-73
2023/01/17 07:36:14;;;;;;;7.93;4.40;;;1.30;99.90;;;;;;490062;242;27503;-73
2023/01/17 07:38:16;;;;;;;5.43;4.20;;;1.30;99.90;;;;;;490080;242;27595;-73
2023/01/17 07:40:17;;;;;;;5.32;4.22;;;1.40;99.90;;;;;;490050;242;27919;-73
2023/01/17 07:42:18;;;;;;;6.55;5.25;;;1.50;99.90;;;;;;490077;242;28021;-73
2023/01/17 07:44:19;;;;;;;11.73;8.27;;;1.50;99.90;;;;;;490075;242;27846;-73
2023/01/17 07:46:21;;;;;;;7.80;5.78;;;1.40;99.90;;;;;;490062;242;27575;-73
2023/01/17 07:48:22;;;;;;;11.90;6.12;;;1.40;99.90;;;;;;490088;242;27415;-73
2023/01/17 07:50:23;;;;;;;5.75;4.85;;;1.30;99.90;;;;;;490016;242;27646;-74
2023/01/17 07:52:24;;;;;;;9.88;5.07;;;1.30;99.90;;;;;;490060;242;27504;-73
2023/01/17 07:54:26;;;;;;;5.93;4.70;;;1.20;99.90;;;;;;490057;242;27475;-73
2023/01/17 07:56:27;;;;;;;7.93;4.15;;;1.30;99.90;;;;;;490086;242;27424;-73
2023/01/17 07:58:28;;;;;;;6.62;4.40;;;1.40;99.90;;;;;;490118;242;27427;-72
2023/01/17 08:00:29;;;;;;;8.23;4.75;;;1.50;99.90;;;;;;490089;242;27541;-73
2023/01/17 08:02:31;;;;;;;7.28;4.80;;;1.50;99.90;;;;;;490052;242;27582;-73
2023/01/17 08:04:34;;;;;;;7.12;4.50;;;1.60;99.90;;;;;;490053;242;27468;-73
2023/01/17 08:06:33;;;;;;;7.25;5.78;;;1.60;99.90;;;;;;489960;242;28040;-73
2023/01/17 08:08:34;;;;;;;16.60;9.68;;;1.70;99.90;;;;;;490084;242;27948;-73
2023/01/17 08:10:36;;;;;;;13.02;9.43;;;1.70;99.90;;;;;;490107;242;27931;-73
2023/01/17 08:12:37;;;;;;;8.52;6.80;;;1.70;99.90;;;;;;490116;242;27400;-73
2023/01/17 08:14:38;;;;;;;10.70;7.00;;;1.70;99.90;;;;;;490111;242;27452;-73
2023/01/17 08:16:40;;;;;;;8.20;6.47;;;1.70;99.90;;;;;;490110;242;27502;-73
2023/01/17 08:18:41;;;;;;;11.00;6.15;;;1.70;99.90;;;;;;490093;242;27524;-73
2023/01/17 08:20:42;;;;;;;8.60;5.62;;;1.60;99.90;;;;;;490144;242;27560;-73
2023/01/17 08:22:43;;;;;;;6.22;5.20;;;1.50;99.90;;;;;;490119;242;27528;-73
2023/01/17 08:24:44;;;;;;;8.95;5.05;;;1.30;99.90;;;;;;490106;242;27480;-73
2023/01/17 08:26:46;;;;;;;8.15;5.25;;;1.30;99.90;;;;;;490074;242;27516;-73
2023/01/17 08:28:47;;;;;;;7.50;5.12;;;1.30;99.90;;;;;;490110;242;27594;-72
2023/01/17 08:30:48;;;;;;;6.15;4.75;;;1.30;99.90;;;;;;490119;242;27935;-73
2023/01/17 08:32:49;;;;;;;8.95;5.03;;;1.30;99.90;;;;;;490087;242;27984;-73
2023/01/17 08:34:51;;;;;;;5.40;4.10;;;1.40;99.90;;;;;;490087;242;27980;-73
2023/01/17 08:36:52;;;;;;;8.43;4.75;;;1.40;99.90;;;;;;490078;242;27959;-73
2023/01/17 08:38:53;;;;;;;8.30;4.15;;;1.50;99.90;;;;;;490011;242;27532;-73
2023/01/17 08:40:54;;;;;;;7.82;4.25;;;1.50;99.90;;;;;;490104;242;27488;-73
2023/01/17 08:42:56;;;;;;;4.35;3.67;;;1.50;99.90;;;;;;490102;242;27586;-73
2023/01/17 08:44:57;;;;;;;6.03;3.67;;;1.60;99.90;;;;;;490085;242;27469;-73
2023/01/17 08:46:58;;;;;;;9.70;4.53;;;1.70;99.90;;;;;;490067;242;27512;-73
2023/01/17 08:49:01;;;;;;;6.50;3.95;;;1.80;99.90;;;;;;490117;242;27623;-72
2023/01/17 08:51:01;;;;;;;6.07;3.80;;;1.80;99.90;;;;;;490005;242;27494;-73
2023/01/17 08:53:02;;;;;;;6.78;3.60;;;1.90;99.90;;;;;;490055;242;27547;-72
2023/01/17 08:55:04;;;;;;;6.12;3.40;;;2.00;99.90;;;;;;490080;242;27516;-72
2023/01/17 08:57:04;;;;;;;8.77;4.00;;;2.00;99.90;;;;;;490037;242;27611;-73
2023/01/17 08:59:06;;;;;;;4.20;3.60;;;2.00;99.90;;;;;;490098;242;27532;-72
2023/01/17 09:01:07;;;;;;;6.97;3.55;;;2.10;99.90;;;;;;490093;242;27925;-72
2023/01/17 09:03:09;;;;;;;5.43;3.90;;;2.10;99.90;;;;;;490076;242;28090;-73
2023/01/17 09:05:10;;;;;;;7.75;3.58;;;2.10;99.90;;;;;;490030;242;27983;-73
2023/01/17 09:07:11;;;;;;;4.32;3.30;;;2.10;99.90;;;;;;490020;242;29070;-74
2023/01/17 09:09:12;;;;;;;7.22;4.00;;;2.20;99.90;;;;;;490075;242;27608;-73
2023/01/17 09:11:13;;;;;;;7.78;3.83;;;2.30;99.90;;;;;;490072;242;27508;-73
2023/01/17 09:13:14;;;;;;;5.65;3.12;;;2.30;99.90;;;;;;490063;242;27576;-73
2023/01/17 09:15:19;;;;;;;5.32;3.28;;;2.30;99.90;;;;;;490093;242;27563;-73
2023/01/17 09:17:17;;;;;;;4.50;3.60;;;2.40;99.90;;;;;;489890;242;27500;-73
2023/01/17 09:19:18;;;;;;;4.30;3.30;;;2.40;99.90;;;;;;490075;242;27778;-73
2023/01/17 09:21:19;;;;;;;7.70;3.35;;;2.40;99.90;;;;;;490084;242;27392;-72
2023/01/17 09:23:21;;;;;;;7.30;3.50;;;2.50;99.90;;;;;;490092;242;27496;-73
2023/01/17 09:25:22;;;;;;;7.75;4.28;;;2.60;99.90;;;;;;490092;242;27496;-73
2023/01/17 09:27:23;;;;;;;5.25;3.70;;;2.60;99.90;;;;;;490096;242;27544;-73
2023/01/17 09:29:24;;;;;;;5.40;3.30;;;2.70;99.90;;;;;;486574;242;36486;-73
2023/01/17 09:31:29;;;;;;;3.60;3.30;;;2.70;99.90;;;;;;490112;242;27904;-73
2023/01/17 09:33:30;;;;;;;6.25;4.00;;;2.70;99.90;;;;;;490123;242;27419;-73
2023/01/17 09:35:31;;;;;;;5.53;4.07;;;2.70;99.90;;;;;;490132;242;27504;-72
2023/01/17 09:37:32;;;;;;;6.80;3.60;;;2.70;99.90;;;;;;490116;242;27480;-75
2023/01/17 09:39:34;;;;;;;4.15;3.47;;;2.80;99.90;;;;;;490085;242;27523;-76
2023/01/17 09:41:35;;;;;;;3.85;3.37;;;2.80;99.90;;;;;;490100;242;27528;-73
2023/01/17 09:43:36;;;;;;;4.03;3.50;;;2.80;99.90;;;;;;490080;242;27563;-73
2023/01/17 09:45:37;;;;;;;5.60;3.45;;;2.90;99.90;;;;;;490043;242;27509;-73
2023/01/17 09:47:39;;;;;;;6.15;3.37;;;2.90;99.90;;;;;;490081;242;27948;-73
2023/01/17 09:49:40;;;;;;;4.03;3.15;;;2.70;99.90;;;;;;490083;242;28145;-73
2023/01/17 09:51:41;;;;;;;4.78;3.33;;;2.80;99.90;;;;;;490120;242;28056;-73
2023/01/17 09:53:43;;;;;;;4.10;3.45;;;2.80;99.90;;;;;;490076;242;27920;-73
2023/01/17 09:55:44;;;;;;;4.53;3.10;;;3.00;99.90;;;;;;490083;242;27508;-73
2023/01/17 09:57:45;;;;;;;7.80;3.08;;;3.00;99.90;;;;;;490058;242;27469;-72
2023/01/17 09:59:46;;;;;;;5.78;3.08;;;3.00;99.90;;;;;;490070;242;27582;-73
2023/01/17 10:01:47;;;;;;;3.75;3.20;;;2.90;99.90;;;;;;490113;242;27436;-73
2023/01/17 10:03:49;;;;;;;6.35;3.60;;;2.90;99.90;;;;;;490106;242;27488;-73
2023/01/17 10:05:50;;;;;;;6.75;4.10;;;3.00;99.90;;;;;;490066;242;27527;-72
2023/01/17 10:07:51;;;;;;;3.80;3.00;;;2.90;99.90;;;;;;490064;242;27480;-73
2023/01/17 10:09:52;;;;;;;5.55;3.42;;;2.70;99.90;;;;;;490059;242;27952;-74
2023/01/17 10:11:54;;;;;;;4.60;2.83;;;2.60;99.90;;;;;;490109;242;28087;-73
2023/01/17 10:13:55;;;;;;;8.07;3.72;;;2.80;99.90;;;;;;490068;242;29104;-73
2023/01/17 10:15:56;;;;;;;4.68;3.53;;;3.00;99.90;;;;;;490086;242;28022;-73
2023/01/17 10:17:57;;;;;;;4.37;3.33;;;3.00;99.90;;;;;;490073;242;27508;-73
2023/01/17 10:19:59;;;;;;;6.15;3.45;;;2.80;99.90;;;;;;490058;242;27504;-73
2023/01/17 10:22:01;;;;;;;4.30;3.35;;;2.60;99.90;;;;;;490080;242;27509;-73
2023/01/17 10:24:02;;;;;;;5.90;3.37;;;2.50;99.90;;;;;;490051;242;27504;-73
2023/01/17 10:26:02;;;;;;;5.80;3.30;;;2.60;99.90;;;;;;490045;242;27512;-73
2023/01/17 10:28:04;;;;;;;5.22;3.37;;;2.70;99.90;;;;;;490063;242;27514;-73
2023/01/17 10:30:05;;;;;;;5.12;4.40;;;2.90;99.90;;;;;;490079;242;27526;-73
2023/01/17 10:32:06;;;;;;;4.90;3.33;;;3.10;99.90;;;;;;490095;242;27548;-73
2023/01/17 10:34:07;;;;;;;5.15;3.53;;;3.20;99.90;;;;;;490091;242;27552;-73
2023/01/17 10:36:09;;;;;;;4.32;2.85;;;3.30;99.90;;;;;;490048;242;27591;-73
2023/01/17 10:38:10;;;;;;;6.47;3.12;;;3.30;99.90;;;;;;490072;242;28915;-75
2023/01/17 10:40:12;;;;;;;3.62;3.12;;;3.30;99.90;;;;;;490074;242;27955;-73
2023/01/17 10:42:13;;;;;;;3.53;2.55;;;3.30;99.90;;;;;;490006;242;28056;-73
2023/01/17 10:44:14;;;;;;;4.35;3.10;;;3.30;99.90;;;;;;490083;242;28088;-73
2023/01/17 10:46:15;;;;;;;3.95;2.80;;;3.30;99.90;;;;;;490032;242;27502;-73
2023/01/17 10:48:16;;;;;;;4.43;2.80;;;3.20;99.90;;;;;;490058;242;27502;-73
2023/01/17 10:50:18;;;;;;;6.97;3.83;;;3.20;99.90;;;;;;490091;242;27473;-73
2023/01/17 10:52:19;;;;;;;6.40;4.78;;;3.20;99.90;;;;;;490040;242;27595;-73
2023/01/17 10:54:20;;;;;;;8.25;4.20;;;3.10;99.90;;;;;;490060;242;27561;-73
2023/01/17 10:56:21;;;;;;;7.95;3.92;;;3.10;99.90;;;;;;490100;242;27504;-73
2023/01/17 10:58:22;;;;;;;4.90;3.03;;;3.10;99.90;;;;;;490082;242;27499;-73
2023/01/17 11:00:24;;;;;;;3.47;2.30;;;3.20;99.90;;;;;;490091;242;27507;-73
2023/01/17 11:02:25;;;;;;;4.28;3.20;;;3.10;99.90;;;;;;490078;242;27600;-73
2023/01/17 11:04:26;;;;;;;3.78;3.08;;;3.10;99.90;;;;;;490084;242;27471;-73
2023/01/17 11:06:27;;;;;;;2.95;2.60;;;2.90;99.90;;;;;;490046;242;28050;-72
2023/01/17 11:08:29;;;;;;;5.12;2.65;;;2.90;99.90;;;;;;490059;242;28057;-73
2023/01/17 11:10:30;;;;;;;5.07;3.20;;;2.90;99.90;;;;;;490065;242;28014;-73
2023/01/17 11:12:31;;;;;;;8.50;4.37;;;2.90;99.90;;;;;;490112;242;27972;-73
2023/01/17 11:14:34;;;;;;;5.68;3.55;;;3.00;99.90;;;;;;490084;242;27476;-73
2023/01/17 11:16:36;;;;;;;3.33;2.62;;;3.10;99.90;;;;;;489997;242;27583;-73
2023/01/17 11:18:35;;;;;;;6.28;3.80;;;3.20;99.90;;;;;;489982;242;27615;-75
2023/01/17 11:20:36;;;;;;;8.07;4.05;;;3.30;99.90;;;;;;490092;242;27476;-75
2023/01/17 11:22:37;;;;;;;6.93;4.07;;;3.40;99.90;;;;;;490110;242;27779;-75
2023/01/17 11:24:39;;;;;;;5.60;3.30;;;3.50;99.90;;;;;;490090;242;27567;-75
2023/01/17 11:26:40;;;;;;;6.97;3.35;;;3.60;99.90;;;;;;490092;242;27591;-73
2023/01/17 11:28:41;;;;;;;5.05;3.60;;;3.40;99.90;;;;;;490087;242;27882;-73
2023/01/17 11:30:42;;;;;;;5.20;3.17;;;3.50;99.90;;;;;;490069;242;27554;-73
2023/01/17 11:32:44;;;;;;;6.22;3.40;;;3.20;99.90;;;;;;489988;242;27518;-73
2023/01/17 11:34:45;;;;;;;4.72;3.67;;;3.10;99.90;;;;;;490040;242;27901;-73
2023/01/17 11:36:48;;;;;;;10.85;5.70;;;3.30;99.90;;;;;;490056;242;28083;-75
2023/01/17 11:38:47;;;;;;;7.40;4.40;;;3.20;99.90;;;;;;490009;242;28081;-75
2023/01/17 11:40:49;;;;;;;7.93;4.40;;;3.30;99.90;;;;;;490081;242;27590;-75
2023/01/17 11:42:51;;;;;;;6.00;3.35;;;3.30;99.90;;;;;;490088;242;27603;-73
2023/01/17 11:44:52;;;;;;;8.50;3.42;;;3.30;99.90;;;;;;490046;242;27386;-73
2023/01/17 11:46:52;;;;;;;8.13;4.72;;;3.20;99.90;;;;;;490071;242;27621;-73
2023/01/17 11:48:54;;;;;;;5.50;3.65;;;3.20;99.90;;;;;;490064;242;27599;-73
2023/01/17 11:50:55;;;;;;;10.32;4.65;;;3.20;99.90;;;;;;490092;242;27524;-73
2023/01/17 11:52:56;;;;;;;9.48;5.87;;;3.20;99.90;;;;;;490068;242;27504;-73
2023/01/17 11:54:57;;;;;;;10.07;6.20;;;3.30;99.90;;;;;;490053;242;27467;-73
2023/01/17 11:56:59;;;;;;;9.32;3.15;;;3.40;99.90;;;;;;490038;242;27980;-73